Time;durP1;ratioP1;P1;durP2;ratioP2;P2;SDS_P1;SDS_P2;PMS_P1;PMS_P2;Temp;Humidity;BMP_temperature;BMP_pressure;BME280_temperature;BME280_humidity;BME280_pressure;Samples;Min_cycle;Max_cycle;Signal;HPM_P1;HPM_P2
2023/05/29 00:03:27;;;;;;;5.05;1.58;;;17.20;80.70;;;;;;10505845;28;20097;-67
2023/05/29 00:08:27;;;;;;;8.00;1.73;;;17.10;80.60;;;;;;10488900;28;20020;-67
2023/05/29 00:13:28;;;;;;;5.90;1.70;;;17.10;80.60;;;;;;10486514;28;20078;-67
2023/05/29 00:18:29;;;;;;;4.15;1.50;;;17.10;80.50;;;;;;10494240;28;20354;-68
2023/05/29 00:23:30;;;;;;;6.47;1.88;;;17.00;80.40;;;;;;10496994;28;20024;-67
2023/05/29 00:28:30;;;;;;;8.90;2.10;;;17.00;80.40;;;;;;10474523;28;20047;-67
2023/05/29 00:33:31;;;;;;;4.78;1.55;;;17.00;80.40;;;;;;10487757;28;20140;-68
2023/05/29 00:38:32;;;;;;;6.22;1.55;;;16.90;80.30;;;;;;10491524;28;20028;-68
2023/05/29 00:43:32;;;;;;;5.38;1.23;;;17.00;80.30;;;;;;10486155;28;20439;-67
2023/05/29 00:48:33;;;;;;;6.22;1.55;;;16.80;80.20;;;;;;10475877;28;20055;-68
2023/05/29 00:53:34;;;;;;;7.30;1.60;;;16.80;80.20;;;;;;10476439;28;20036;-68
2023/05/29 00:58:36;;;;;;;6.03;1.42;;;16.80;80.10;;;;;;10488105;28;20128;-67
2023/05/29 01:03:36;;;;;;;6.30;1.70;;;16.80;80.10;;;;;;10484634;28;20040;-67
2023/05/29 01:08:37;;;;;;;7.20;1.67;;;16.70;80.00;;;;;;10492247;28;20023;-68
2023/05/29 01:13:45;;;;;;;5.07;1.50;;;16.70;80.00;;;;;;10472129;28;20095;-68
2023/05/29 01:18:59;;;;;;;5.25;1.25;;;16.60;80.00;;;;;;10476211;28;20029;-68
2023/05/29 01:24:23;;;;;;;6.97;1.90;;;16.60;79.90;;;;;;10475565;28;20417;-67
2023/05/29 01:29:28;;;;;;;7.60;2.58;;;16.60;79.90;;;;;;10491912;28;20075;-68
2023/05/29 01:34:29;;;;;;;5.47;1.42;;;16.50;79.80;;;;;;10476942;28;20029;-67
2023/05/29 01:39:32;;;;;;;5.97;1.25;;;16.50;79.80;;;;;;10478422;28;20029;-67
2023/05/29 01:44:33;;;;;;;3.70;1.20;;;16.50;79.80;;;;;;10486057;28;20013;-67
2023/05/29 01:49:36;;;;;;;7.22;1.42;;;16.40;79.70;;;;;;10482525;28;20037;-67
2023/05/29 01:54:37;;;;;;;3.47;1.30;;;16.40;79.70;;;;;;10495977;28;20021;-68
2023/05/29 01:59:37;;;;;;;5.28;1.27;;;16.40;79.70;;;;;;10473940;28;20021;-67
2023/05/29 02:04:38;;;;;;;5.43;1.50;;;16.40;79.80;;;;;;10486843;28;20025;-67
2023/05/29 02:09:39;;;;;;;7.53;1.40;;;16.30;79.70;;;;;;10477309;28;20033;-67
2023/05/29 02:14:40;;;;;;;6.10;1.75;;;16.30;79.60;;;;;;10477111;28;20055;-68
2023/05/29 02:19:41;;;;;;;9.55;3.03;;;16.30;79.70;;;;;;10478066;28;20042;-68
2023/05/29 02:24:42;;;;;;;6.95;1.40;;;16.20;79.60;;;;;;10471307;28;20066;-67
2023/05/29 02:29:42;;;;;;;6.18;1.55;;;16.20;79.60;;;;;;10474916;28;20039;-67
2023/05/29 02:34:43;;;;;;;5.97;1.15;;;16.10;79.60;;;;;;10474774;28;20039;-68
2023/05/29 02:39:43;;;;;;;8.07;1.40;;;16.10;79.60;;;;;;10475859;28;20032;-68
2023/05/29 02:44:44;;;;;;;3.92;1.33;;;16.10;79.60;;;;;;10465797;28;20024;-68
2023/05/29 02:49:45;;;;;;;5.80;1.38;;;16.10;79.60;;;;;;10472059;28;20024;-67
2023/05/29 02:54:45;;;;;;;4.55;1.10;;;16.00;79.50;;;;;;10474396;28;20021;-68
2023/05/29 02:59:47;;;;;;;10.77;1.55;;;16.00;79.50;;;;;;10468262;28;20020;-67
2023/05/29 03:04:52;;;;;;;5.82;1.50;;;16.00;79.60;;;;;;10470931;28;20009;-68
2023/05/29 03:09:53;;;;;;;3.90;1.52;;;15.90;79.50;;;;;;10463332;28;20039;-67
2023/05/29 03:14:56;;;;;;;6.53;1.40;;;15.90;79.50;;;;;;10484749;28;20563;-68
2023/05/29 03:19:57;;;;;;;5.30;1.23;;;15.90;79.50;;;;;;10480012;28;20033;-68
2023/05/29 03:24:58;;;;;;;3.45;1.40;;;15.80;79.40;;;;;;10467887;28;20017;-68
2023/05/29 03:29:59;;;;;;;7.35;1.90;;;15.80;79.40;;;;;;10488299;28;20028;-68
2023/05/29 03:35:01;;;;;;;4.43;1.50;;;15.80;79.50;;;;;;10492112;28;20024;-68
2023/05/29 03:40:01;;;;;;;3.47;1.27;;;15.80;79.50;;;;;;10481071;28;20402;-68
2023/05/29 03:45:02;;;;;;;5.38;1.33;;;15.70;80.00;;;;;;10486241;28;20020;-68
2023/05/29 03:50:03;;;;;;;7.72;2.03;;;15.70;79.40;;;;;;10488009;28;20037;-67
2023/05/29 03:55:08;;;;;;;4.97;1.25;;;15.70;79.40;;;;;;10479841;28;20116;-67
2023/05/29 04:00:11;;;;;;;4.80;1.35;;;15.60;79.30;;;;;;10484916;28;20115;-68
2023/05/29 04:05:13;;;;;;;10.43;2.25;;;15.60;79.30;;;;;;10473671;28;20013;-68
2023/05/29 04:10:15;;;;;;;4.93;1.23;;;15.60;79.30;;;;;;10487831;28;20024;-68
2023/05/29 04:15:15;;;;;;;6.18;1.63;;;15.60;79.30;;;;;;10486528;28;20396;-68
2023/05/29 04:20:16;;;;;;;5.65;1.30;;;15.50;79.20;;;;;;10481571;28;20032;-67
2023/05/29 04:25:17;;;;;;;4.72;1.10;;;15.50;79.20;;;;;;10492330;28;20112;-68
2023/05/29 04:30:18;;;;;;;7.43;1.40;;;15.50;79.20;;;;;;10491400;28;20360;-68
2023/05/29 04:35:19;;;;;;;4.10;2.03;;;15.50;79.20;;;;;;10481466;28;20028;-68
2023/05/29 04:40:20;;;;;;;5.28;1.48;;;15.40;79.10;;;;;;10486742;28;20036;-68
2023/05/29 04:45:21;;;;;;;3.42;1.10;;;15.50;79.10;;;;;;10489465;28;20024;-68
2023/05/29 04:50:23;;;;;;;5.28;1.30;;;15.40;79.10;;;;;;10491020;28;20035;-68
2023/05/29 04:55:24;;;;;;;6.05;1.58;;;15.40;79.00;;;;;;10492384;28;20468;-67
2023/05/29 05:00:25;;;;;;;6.00;1.38;;;15.40;79.00;;;;;;10482827;28;20021;-68
2023/05/29 05:05:25;;;;;;;7.05;2.10;;;15.40;79.00;;;;;;10488499;28;20664;-68
2023/05/29 05:10:26;;;;;;;5.13;1.80;;;15.40;79.00;;;;;;10481937;28;20123;-67
2023/05/29 05:15:27;;;;;;;4.20;1.42;;;15.40;79.00;;;;;;10492868;28;20032;-68
2023/05/29 05:20:27;;;;;;;5.55;1.80;;;15.30;79.00;;;;;;10476904;28;20552;-68
2023/05/29 05:25:28;;;;;;;6.18;1.42;;;15.30;78.90;;;;;;10494203;28;20021;-68
2023/05/29 05:30:31;;;;;;;4.35;1.40;;;15.30;78.90;;;;;;10483147;28;20103;-67
2023/05/29 05:35:31;;;;;;;5.13;2.05;;;15.20;78.90;;;;;;10477794;28;20135;-68
2023/05/29 05:40:32;;;;;;;5.03;1.25;;;15.30;78.90;;;;;;10496904;28;20046;-68
2023/05/29 05:45:33;;;;;;;5.95;1.40;;;15.30;78.90;;;;;;10494293;28;20500;-68
2023/05/29 05:50:33;;;;;;;6.13;1.40;;;15.30;78.90;;;;;;10492520;28;20017;-68
2023/05/29 05:55:34;;;;;;;4.18;1.52;;;15.30;78.90;;;;;;10493237;28;20032;-68
2023/05/29 06:00:35;;;;;;;5.55;2.42;;;15.30;78.90;;;;;;10485608;28;20028;-67
2023/05/29 06:05:37;;;;;;;6.68;2.05;;;15.30;78.90;;;;;;10470360;28;20103;-67
2023/05/29 06:10:38;;;;;;;3.95;1.70;;;15.30;78.80;;;;;;10480357;28;20349;-68
2023/05/29 06:15:39;;;;;;;7.95;1.98;;;15.30;78.80;;;;;;10481027;28;20020;-67
2023/05/29 06:20:39;;;;;;;6.68;1.67;;;15.30;78.80;;;;;;10489037;28;20484;-67
2023/05/29 06:25:40;;;;;;;3.58;1.48;;;15.30;78.80;;;;;;10480037;28;20474;-67
2023/05/29 06:30:41;;;;;;;3.78;1.40;;;15.30;78.90;;;;;;10481770;28;20048;-67
2023/05/29 06:35:42;;;;;;;6.10;1.55;;;15.30;78.90;;;;;;10487031;28;20102;-67
2023/05/29 06:40:42;;;;;;;4.22;1.88;;;15.30;79.00;;;;;;10483355;28;20031;-67
2023/05/29 06:45:43;;;;;;;6.70;1.67;;;15.40;79.10;;;;;;10486422;28;20783;-67
2023/05/29 06:50:43;;;;;;;7.45;1.55;;;15.30;79.10;;;;;;10480610;28;20440;-67
2023/05/29 06:55:44;;;;;;;5.22;1.42;;;15.40;79.20;;;;;;10484435;28;20020;-67
2023/05/29 07:00:44;;;;;;;4.28;1.65;;;15.40;79.40;;;;;;10488242;28;20020;-68
2023/05/29 07:05:45;;;;;;;3.25;1.38;;;15.40;79.40;;;;;;10485404;28;20017;-67
2023/05/29 07:10:46;;;;;;;2.40;1.17;;;15.40;79.40;;;;;;10482642;28;20052;-68
2023/05/29 07:15:48;;;;;;;2.60;1.50;;;15.40;79.40;;;;;;10471700;28;20078;-68
2023/05/29 07:20:49;;;;;;;4.63;1.38;;;15.40;79.60;;;;;;10476416;28;20020;-68
2023/05/29 07:25:49;;;;;;;3.00;1.58;;;15.50;79.60;;;;;;10473526;28;20016;-67
2023/05/29 07:30:50;;;;;;;5.72;1.50;;;15.50;79.50;;;;;;10484041;28;20226;-67
2023/05/29 07:35:51;;;;;;;6.70;1.52;;;15.50;79.60;;;;;;10470595;28;20503;-67
2023/05/29 07:40:51;;;;;;;4.18;1.40;;;15.50;79.80;;;;;;10471400;28;20013;-67
2023/05/29 07:45:52;;;;;;;5.85;1.90;;;15.50;79.70;;;;;;10478507;28;20831;-67
2023/05/29 07:50:52;;;;;;;3.70;1.48;;;15.50;79.80;;;;;;10483612;28;20096;-67
2023/05/29 07:55:53;;;;;;;4.40;1.52;;;15.60;79.80;;;;;;10481380;28;20286;-67
2023/05/29 08:00:54;;;;;;;4.70;1.83;;;15.60;79.90;;;;;;10486157;28;20020;-67
2023/05/29 08:05:55;;;;;;;5.20;1.65;;;15.60;79.80;;;;;;10471539;28;20017;-68
2023/05/29 08:10:55;;;;;;;3.78;1.33;;;15.60;79.80;;;;;;10478942;28;20495;-68
2023/05/29 08:15:56;;;;;;;3.55;1.60;;;15.70;79.90;;;;;;10490404;28;20024;-67
2023/05/29 08:20:57;;;;;;;3.40;1.80;;;15.70;80.00;;;;;;10489504;28;20039;-67
2023/05/29 08:25:58;;;;;;;5.07;1.45;;;15.70;80.00;;;;;;10489432;28;20377;-67
2023/05/29 08:30:58;;;;;;;4.72;1.50;;;15.70;80.00;;;;;;10485110;28;20040;-67
2023/05/29 08:36:00;;;;;;;5.20;2.20;;;15.80;80.10;;;;;;10482202;28;20040;-67
2023/05/29 08:41:02;;;;;;;5.15;1.90;;;15.80;80.10;;;;;;10489334;28;20040;-67
2023/05/29 08:46:03;;;;;;;7.15;2.40;;;15.80;80.10;;;;;;10483256;28;20407;-67
2023/05/29 08:51:05;;;;;;;5.32;1.63;;;15.90;80.10;;;;;;10477532;28;20037;-67
2023/05/29 08:56:06;;;;;;;4.70;1.88;;;15.90;80.10;;;;;;10489873;28;20116;-67
2023/05/29 09:01:06;;;;;;;3.80;1.83;;;16.00;80.10;;;;;;10493635;28;20041;-67
2023/05/29 09:06:08;;;;;;;8.32;2.10;;;16.00;79.90;;;;;;10490718;28;20489;-67
2023/05/29 09:11:08;;;;;;;4.97;1.92;;;16.10;80.00;;;;;;10473471;28;20065;-68
2023/05/29 09:16:09;;;;;;;3.17;1.45;;;16.10;79.80;;;;;;10492882;28;20545;-67
2023/05/29 09:21:10;;;;;;;4.05;1.70;;;16.30;79.90;;;;;;10489548;28;20029;-68
2023/05/29 09:26:14;;;;;;;6.03;2.00;;;16.20;79.90;;;;;;10482357;28;20024;-67
2023/05/29 09:31:20;;;;;;;6.68;1.80;;;16.30;80.00;;;;;;10485903;28;20032;-67
2023/05/29 09:36:23;;;;;;;8.18;1.80;;;16.30;80.00;;;;;;10499863;28;20028;-67
2023/05/29 09:41:24;;;;;;;8.20;1.77;;;16.40;80.00;;;;;;10496260;28;20028;-67
2023/05/29 09:46:24;;;;;;;6.05;2.08;;;16.30;79.90;;;;;;10482795;28;20013;-67
2023/05/29 09:51:26;;;;;;;6.30;1.58;;;16.50;80.00;;;;;;10490369;28;20024;-67
2023/05/29 09:56:28;;;;;;;4.00;1.63;;;16.50;79.90;;;;;;10501652;28;20021;-67
2023/05/29 10:01:29;;;;;;;4.13;1.92;;;16.40;79.90;;;;;;10493867;28;20103;-68
2023/05/29 10:06:30;;;;;;;5.10;2.13;;;16.50;80.00;;;;;;10488973;28;20012;-68
2023/05/29 10:11:32;;;;;;;3.47;1.70;;;16.50;80.00;;;;;;10485757;28;20039;-68
2023/05/29 10:16:38;;;;;;;3.83;1.40;;;16.50;80.00;;;;;;10489731;28;20647;-67
2023/05/29 10:21:41;;;;;;;3.65;1.55;;;16.60;79.90;;;;;;10486093;28;20380;-68
2023/05/29 10:26:46;;;;;;;6.70;1.60;;;16.70;79.90;;;;;;10480216;28;20017;-67
2023/05/29 10:31:53;;;;;;;5.20;1.80;;;16.70;79.80;;;;;;10482356;28;20032;-67
2023/05/29 10:37:07;;;;;;;9.02;2.03;;;16.70;79.70;;;;;;10477357;28;20428;-67
2023/05/29 10:42:46;;;;;;;4.53;1.60;;;16.80;79.90;;;;;;10472756;28;20112;-67
2023/05/29 10:47:47;;;;;;;5.22;1.98;;;16.80;80.00;;;;;;10489930;28;20013;-67
2023/05/29 10:52:47;;;;;;;3.90;1.60;;;16.80;79.60;;;;;;10488195;28;20484;-67
2023/05/29 10:57:48;;;;;;;5.35;1.98;;;16.90;79.80;;;;;;10484400;28;20502;-67
2023/05/29 11:02:52;;;;;;;7.45;1.98;;;17.00;79.80;;;;;;10492779;28;20290;-68
2023/05/29 11:08:02;;;;;;;5.63;1.83;;;17.00;79.80;;;;;;10476852;28;20111;-67
2023/05/29 11:13:05;;;;;;;5.85;2.53;;;17.10;80.10;;;;;;10480797;28;20036;-68
2023/05/29 11:18:11;;;;;;;3.03;1.48;;;17.00;80.00;;;;;;10488466;28;20500;-67
2023/05/29 11:23:17;;;;;;;6.13;2.38;;;17.10;80.10;;;;;;10489044;28;20062;-67
2023/05/29 11:28:18;;;;;;;4.97;2.00;;;17.10;80.10;;;;;;10480600;28;20017;-67
2023/05/29 11:33:26;;;;;;;6.60;1.70;;;17.10;80.10;;;;;;10487532;28;20029;-67
2023/05/29 11:38:27;;;;;;;4.25;1.77;;;17.20;80.30;;;;;;10478308;28;20114;-68
2023/05/29 11:43:28;;;;;;;4.32;1.77;;;17.30;80.20;;;;;;10497160;28;20531;-67
2023/05/29 11:48:29;;;;;;;5.18;1.63;;;17.30;80.10;;;;;;10497141;28;20103;-67
2023/05/29 11:53:29;;;;;;;5.53;1.60;;;17.30;80.10;;;;;;10486383;28;20051;-67
2023/05/29 11:58:30;;;;;;;6.38;1.88;;;17.40;80.00;;;;;;10492253;28;20031;-68
2023/05/29 12:03:30;;;;;;;4.10;1.52;;;17.50;80.00;;;;;;10487420;28;20334;-68
2023/05/29 12:08:31;;;;;;;4.15;1.90;;;17.50;79.80;;;;;;10503870;28;20032;-68
2023/05/29 12:13:32;;;;;;;6.40;1.63;;;17.60;79.80;;;;;;10489975;28;20036;-68
2023/05/29 12:18:33;;;;;;;3.42;1.67;;;17.60;79.60;;;;;;10495579;28;20028;-68
2023/05/29 12:23:37;;;;;;;3.90;1.73;;;17.60;79.60;;;;;;10497342;28;21976;-68
2023/05/29 12:28:44;;;;;;;3.47;1.50;;;17.70;79.70;;;;;;10485976;28;20032;-67
2023/05/29 12:33:44;;;;;;;5.45;1.63;;;17.70;79.60;;;;;;10485198;28;20508;-67
2023/05/29 12:38:50;;;;;;;3.65;1.40;;;17.80;79.60;;;;;;10485307;28;20111;-67
2023/05/29 12:43:54;;;;;;;4.03;1.60;;;17.80;79.70;;;;;;10486541;28;20507;-68
2023/05/29 12:48:56;;;;;;;6.63;1.58;;;17.90;79.70;;;;;;10487841;28;20234;-68
2023/05/29 12:53:58;;;;;;;5.40;2.15;;;17.90;79.50;;;;;;10483447;28;20071;-68
2023/05/29 12:58:58;;;;;;;5.53;1.70;;;18.00;79.60;;;;;;10476420;28;20252;-67
2023/05/29 13:03:59;;;;;;;5.45;1.65;;;18.00;79.50;;;;;;10478837;28;20029;-68
2023/05/29 13:09:00;;;;;;;2.97;1.45;;;18.10;79.50;;;;;;10479861;28;20036;-67
2023/05/29 13:14:00;;;;;;;4.50;1.65;;;18.10;79.40;;;;;;10477059;28;20071;-68
2023/05/29 13:19:01;;;;;;;4.85;1.50;;;18.10;79.30;;;;;;10487038;28;20060;-68
2023/05/29 13:24:02;;;;;;;4.05;1.40;;;18.30;79.40;;;;;;10472193;28;20033;-68
2023/05/29 13:29:02;;;;;;;4.47;1.60;;;18.30;79.50;;;;;;10478708;28;20356;-68
2023/05/29 13:34:03;;;;;;;6.95;2.00;;;18.40;79.30;;;;;;10482057;28;21013;-68
2023/05/29 13:39:04;;;;;;;6.93;2.50;;;18.50;79.00;;;;;;10485468;28;20040;-67
2023/05/29 13:44:04;;;;;;;4.43;1.48;;;18.50;78.80;;;;;;10473055;28;20020;-67
2023/05/29 13:49:07;;;;;;;4.25;1.63;;;18.60;78.60;;;;;;10483666;28;20373;-68
2023/05/29 13:54:07;;;;;;;4.32;1.40;;;18.70;78.50;;;;;;10484267;28;20020;-67
2023/05/29 13:59:08;;;;;;;5.22;1.75;;;18.80;78.50;;;;;;10482252;28;20024;-68
2023/05/29 14:04:08;;;;;;;4.38;1.58;;;18.80;78.40;;;;;;10483560;28;20023;-68
2023/05/29 14:09:09;;;;;;;6.82;2.00;;;18.90;78.30;;;;;;10476967;28;20036;-68
2023/05/29 14:14:10;;;;;;;6.97;2.28;;;18.90;78.40;;;;;;10482739;28;20507;-68
2023/05/29 14:19:10;;;;;;;5.07;1.52;;;19.00;78.20;;;;;;10484622;28;20147;-68
2023/05/29 14:24:12;;;;;;;3.03;1.30;;;19.10;78.10;;;;;;10483133;28;20291;-67
2023/05/29 14:29:14;;;;;;;4.72;1.60;;;19.10;78.10;;;;;;10477573;28;20016;-68
2023/05/29 14:34:14;;;;;;;4.70;1.40;;;19.20;77.90;;;;;;10484618;28;20029;-68
2023/05/29 14:39:15;;;;;;;3.20;1.35;;;19.30;78.00;;;;;;10487125;28;20027;-68
2023/05/29 14:44:16;;;;;;;3.92;1.27;;;19.40;77.90;;;;;;10486311;28;20024;-68
2023/05/29 14:49:16;;;;;;;4.50;1.30;;;19.40;77.70;;;;;;10479356;28;20021;-67
2023/05/29 14:54:17;;;;;;;2.60;1.30;;;19.60;77.80;;;;;;10474222;28;20028;-68
2023/05/29 14:59:18;;;;;;;2.70;1.20;;;19.60;77.60;;;;;;10483567;28;20031;-67
2023/05/29 15:04:18;;;;;;;3.88;1.50;;;19.70;77.50;;;;;;10485102;28;20024;-68
2023/05/29 15:09:19;;;;;;;3.17;1.50;;;19.90;77.60;;;;;;10476434;28;20017;-68
2023/05/29 15:14:23;;;;;;;3.42;1.30;;;20.00;77.50;;;;;;10491697;28;20024;-68
2023/05/29 15:19:24;;;;;;;6.18;1.40;;;20.10;77.40;;;;;;10482500;28;20495;-67
2023/05/29 15:24:24;;;;;;;3.40;1.40;;;20.00;77.40;;;;;;10490396;28;20112;-68
2023/05/29 15:29:25;;;;;;;2.70;1.13;;;20.10;77.40;;;;;;10494584;28;20013;-68
2023/05/29 15:34:26;;;;;;;2.33;1.30;;;20.30;77.50;;;;;;10498567;28;20033;-68
2023/05/29 15:39:27;;;;;;;2.55;1.25;;;20.30;77.50;;;;;;10500902;28;20016;-68
2023/05/29 15:44:27;;;;;;;4.47;1.23;;;20.40;77.50;;;;;;10491592;28;20025;-67
2023/05/29 15:49:28;;;;;;;2.88;1.10;;;20.40;77.30;;;;;;10502159;28;20021;-67
2023/05/29 15:54:28;;;;;;;3.33;1.10;;;20.40;77.50;;;;;;10495459;28;20058;-68
2023/05/29 15:59:29;;;;;;;3.92;1.20;;;20.40;77.80;;;;;;10501096;28;20522;-68
2023/05/29 16:04:31;;;;;;;1.95;1.10;;;20.30;77.80;;;;;;10495150;28;20460;-67
2023/05/29 16:09:32;;;;;;;3.10;1.33;;;20.30;78.20;;;;;;10487319;28;20032;-68
2023/05/29 16:14:32;;;;;;;2.22;1.25;;;20.20;78.40;;;;;;10501150;28;20031;-68
2023/05/29 16:19:33;;;;;;;3.35;1.00;;;20.10;78.70;;;;;;10493662;28;20025;-67
2023/05/29 16:24:34;;;;;;;4.47;1.00;;;20.10;78.90;;;;;;10493641;28;20025;-67
2023/05/29 16:29:34;;;;;;;4.63;1.50;;;20.00;79.00;;;;;;10494148;28;20368;-68
2023/05/29 16:34:35;;;;;;;3.10;1.27;;;19.90;78.80;;;;;;10485812;28;20036;-67
2023/05/29 16:39:37;;;;;;;2.08;1.00;;;19.90;79.20;;;;;;10490495;28;20024;-67
2023/05/29 16:44:38;;;;;;;5.20;1.27;;;19.80;79.00;;;;;;10492804;28;20013;-68
2023/05/29 16:49:40;;;;;;;4.00;1.20;;;19.70;78.90;;;;;;10479926;28;20021;-68
2023/05/29 16:54:41;;;;;;;1.83;0.75;;;19.70;78.80;;;;;;10509638;28;20015;-67
2023/05/29 16:59:42;;;;;;;3.20;1.17;;;19.60;78.90;;;;;;10495587;28;20023;-67
2023/05/29 17:04:43;;;;;;;4.50;1.58;;;19.60;78.70;;;;;;10482081;28;20020;-67
2023/05/29 17:09:43;;;;;;;4.47;1.60;;;19.60;79.30;;;;;;10484189;28;20519;-67
2023/05/29 17:14:44;;;;;;;2.35;1.02;;;19.50;78.70;;;;;;10491097;28;20024;-67
2023/05/29 17:19:45;;;;;;;4.82;1.33;;;19.40;78.50;;;;;;10483437;28;20035;-67
2023/05/29 17:24:45;;;;;;;3.95;1.20;;;19.50;78.70;;;;;;10483952;28;20016;-67
2023/05/29 17:29:46;;;;;;;4.50;1.60;;;19.40;79.30;;;;;;10488550;28;20039;-67
2023/05/29 17:34:47;;;;;;;4.00;1.20;;;19.30;78.60;;;;;;10479414;28;20025;-67
2023/05/29 17:39:47;;;;;;;2.50;1.20;;;19.30;78.40;;;;;;10488011;28;20009;-67
2023/05/29 17:44:48;;;;;;;2.10;1.02;;;19.20;78.40;;;;;;10493364;28;20021;-67
2023/05/29 17:49:49;;;;;;;7.63;1.20;;;19.20;78.40;;;;;;10485414;28;20020;-67
2023/05/29 17:54:49;;;;;;;5.22;1.88;;;19.20;78.20;;;;;;10482786;28;20031;-67
2023/05/29 17:59:50;;;;;;;4.80;1.15;;;19.10;78.00;;;;;;10487327;28;20016;-67
2023/05/29 18:04:51;;;;;;;4.13;1.30;;;19.10;77.90;;;;;;10470458;28;20101;-67
2023/05/29 18:09:51;;;;;;;5.07;1.13;;;19.00;77.70;;;;;;10486850;28;20039;-68
2023/05/29 18:14:52;;;;;;;4.10;1.23;;;19.00;77.70;;;;;;10473875;28;20047;-68
2023/05/29 18:19:53;;;;;;;2.17;1.08;;;18.90;78.00;;;;;;10470431;28;20021;-68
2023/05/29 18:24:53;;;;;;;5.50;1.50;;;18.90;77.70;;;;;;10488805;28;20518;-67
2023/05/29 18:29:54;;;;;;;6.38;1.35;;;18.80;77.90;;;;;;10480515;28;20016;-67
2023/05/29 18:34:55;;;;;;;3.58;1.23;;;18.80;77.70;;;;;;10478021;28;20047;-68
2023/05/29 18:39:55;;;;;;;6.07;1.35;;;18.70;77.80;;;;;;10484335;28;20016;-68
2023/05/29 18:44:56;;;;;;;6.40;1.50;;;18.70;77.70;;;;;;10474602;28;20020;-67
2023/05/29 18:49:57;;;;;;;3.28;1.10;;;18.60;77.70;;;;;;10485570;28;20025;-68
2023/05/29 18:54:58;;;;;;;4.32;1.65;;;18.60;77.60;;;;;;10485640;28;20116;-67
2023/05/29 18:59:59;;;;;;;4.65;1.27;;;18.50;77.90;;;;;;10488392;28;20428;-67
2023/05/29 19:04:59;;;;;;;3.40;1.42;;;18.50;78.10;;;;;;10488399;28;20071;-68
2023/05/29 19:10:00;;;;;;;3.80;1.48;;;18.40;77.90;;;;;;10481384;28;20029;-68
2023/05/29 19:15:01;;;;;;;5.35;1.48;;;18.40;77.70;;;;;;10478809;28;20031;-68
2023/05/29 19:20:04;;;;;;;4.20;1.08;;;18.30;78.00;;;;;;10482552;28;20016;-68
2023/05/29 19:25:05;;;;;;;3.92;1.27;;;18.30;78.40;;;;;;10480645;28;20494;-68
2023/05/29 19:30:07;;;;;;;4.15;1.33;;;18.20;78.00;;;;;;10481554;28;20032;-68
2023/05/29 19:35:09;;;;;;;4.80;1.30;;;18.10;78.10;;;;;;10479740;28;20301;-68
2023/05/29 19:40:10;;;;;;;5.30;1.42;;;17.90;78.00;;;;;;10476716;28;20055;-68
2023/05/29 19:45:11;;;;;;;4.13;1.60;;;18.00;78.10;;;;;;10476935;28;20116;-68
2023/05/29 19:50:13;;;;;;;9.40;1.90;;;18.00;78.10;;;;;;10472835;28;20527;-68
2023/05/29 19:55:14;;;;;;;3.47;1.15;;;17.90;78.10;;;;;;10480273;28;20457;-68
2023/05/29 20:00:15;;;;;;;6.30;1.90;;;17.90;78.70;;;;;;10481027;28;20032;-68
2023/05/29 20:05:16;;;;;;;3.72;1.50;;;17.80;78.10;;;;;;10480380;28;20025;-68
2023/05/29 20:10:16;;;;;;;5.22;1.50;;;17.80;78.20;;;;;;10485597;28;20028;-68
2023/05/29 20:15:17;;;;;;;9.10;1.75;;;17.70;78.20;;;;;;10482623;28;20078;-68
2023/05/29 20:20:18;;;;;;;4.45;1.50;;;17.70;78.20;;;;;;10479039;28;20033;-68
2023/05/29 20:25:19;;;;;;;5.90;1.30;;;17.60;78.20;;;;;;10479013;28;20104;-68
2023/05/29 20:30:19;;;;;;;3.38;1.25;;;17.60;78.20;;;;;;10487366;28;20032;-68
2023/05/29 20:35:20;;;;;;;6.97;1.48;;;17.50;78.10;;;;;;10492595;28;20442;-68
2023/05/29 20:40:21;;;;;;;5.30;1.52;;;17.50;78.10;;;;;;10480072;28;20080;-68
2023/05/29 20:45:22;;;;;;;6.03;1.50;;;17.40;78.10;;;;;;10485687;28;20044;-68
2023/05/29 20:50:25;;;;;;;6.18;2.08;;;17.40;78.20;;;;;;10484359;28;20133;-67
2023/05/29 20:55:26;;;;;;;4.07;1.40;;;17.40;78.20;;;;;;10475898;28;20033;-68
2023/05/29 21:00:26;;;;;;;4.97;1.10;;;17.30;78.20;;;;;;10484410;28;20480;-67
2023/05/29 21:05:27;;;;;;;6.47;1.45;;;17.30;78.20;;;;;;10479178;28;20506;-68
2023/05/29 21:10:28;;;;;;;5.95;2.17;;;17.20;78.10;;;;;;10493039;28;20036;-68
2023/05/29 21:15:29;;;;;;;6.97;1.80;;;17.20;78.10;;;;;;10489386;28;20020;-68
2023/05/29 21:20:30;;;;;;;5.00;1.60;;;17.10;78.10;;;;;;10485375;28;20031;-68
2023/05/29 21:25:31;;;;;;;3.40;1.40;;;17.10;78.10;;;;;;10481776;28;20137;-68
2023/05/29 21:30:32;;;;;;;4.65;2.00;;;17.10;78.10;;;;;;10487401;28;20055;-68
2023/05/29 21:35:33;;;;;;;6.88;1.95;;;17.00;78.00;;;;;;10488471;28;20116;-68
2023/05/29 21:40:34;;;;;;;2.85;1.40;;;17.00;78.00;;;;;;10492796;28;20021;-68
2023/05/29 21:45:34;;;;;;;4.63;1.50;;;17.00;78.00;;;;;;10481917;28;20055;-67
2023/05/29 21:50:35;;;;;;;4.78;1.48;;;16.90;78.00;;;;;;10482807;28;20032;-68
2023/05/29 21:55:35;;;;;;;6.18;1.88;;;16.90;77.90;;;;;;10481894;28;20462;-68
2023/05/29 22:00:36;;;;;;;7.47;1.77;;;16.80;77.90;;;;;;10487977;28;20012;-68
2023/05/29 22:05:37;;;;;;;5.63;2.00;;;16.80;77.90;;;;;;10497599;28;20131;-68
2023/05/29 22:10:37;;;;;;;5.78;1.60;;;16.70;77.90;;;;;;10476071;28;20032;-68
2023/05/29 22:15:38;;;;;;;4.20;1.60;;;16.70;77.90;;;;;;10478302;28;20028;-68
2023/05/29 22:20:39;;;;;;;5.57;2.15;;;16.70;77.90;;;;;;10487188;28;20103;-68
2023/05/29 22:25:41;;;;;;;7.03;2.22;;;16.60;77.80;;;;;;10482634;28;20024;-68
2023/05/29 22:30:42;;;;;;;6.40;1.80;;;16.60;77.90;;;;;;10489682;28;20037;-69
2023/05/29 22:35:42;;;;;;;7.20;1.60;;;16.60;77.90;;;;;;10478472;28;20074;-68
2023/05/29 22:40:43;;;;;;;9.15;1.88;;;16.50;77.90;;;;;;10495126;28;20115;-68
2023/05/29 22:45:44;;;;;;;7.43;2.00;;;16.50;77.90;;;;;;10489299;28;20857;-68
2023/05/29 22:50:44;;;;;;;8.50;2.10;;;16.50;77.90;;;;;;10482700;28;20547;-68
2023/05/29 22:55:47;;;;;;;4.45;1.60;;;16.40;77.90;;;;;;10468513;28;20124;-68
2023/05/29 23:00:48;;;;;;;7.80;1.90;;;16.40;77.90;;;;;;10467248;28;20029;-68
2023/05/29 23:05:49;;;;;;;8.57;2.22;;;16.40;77.90;;;;;;10473148;28;20047;-68
2023/05/29 23:10:49;;;;;;;6.78;1.67;;;16.30;77.90;;;;;;10471697;28;20224;-68
2023/05/29 23:15:53;;;;;;;8.60;2.20;;;16.40;78.00;;;;;;10477442;28;20029;-68
2023/05/29 23:20:54;;;;;;;4.35;1.65;;;16.30;78.00;;;;;;10474903;28;20077;-68
2023/05/29 23:25:54;;;;;;;5.13;1.50;;;16.20;77.90;;;;;;10476125;28;20481;-67
2023/05/29 23:30:55;;;;;;;3.45;1.63;;;16.20;77.90;;;;;;10475018;28;20196;-68
2023/05/29 23:35:56;;;;;;;4.15;1.75;;;16.20;77.90;;;;;;10479434;28;20093;-68
2023/05/29 23:40:56;;;;;;;6.60;1.95;;;16.10;77.80;;;;;;10478691;28;20025;-68
2023/05/29 23:45:57;;;;;;;7.68;2.50;;;16.10;77.90;;;;;;10485696;28;20029;-68
2023/05/29 23:50:58;;;;;;;2.72;1.75;;;16.10;77.90;;;;;;10481031;28;20033;-68
2023/05/29 23:55:58;;;;;;;5.75;1.98;;;16.10;77.90;;;;;;10486936;28;20078;-68
